WSSL/XSP METAR and TAF weather

Enter ICAO airport designator
Station Type Date Time Source
WSSL METAR 2018/12/15 22:00 UTC NOAA

WSSL 152200Z VRB01KT 9999 FEW016 SCT150 24/24 Q1010


Station Type Date Time Source
WSSL Decoded METAR 2018/12/15 22:00 UTC NOAA

Station name not available
Dec 15, 2018 - 05:00 PM EST / 2018.12.15 2200 UTC
Wind: Variable at 1 MPH (1 KT):0
Visibility: greater than 7 mile(s):0
Sky conditions: partly cloudy
Temperature: 75 F (24 C)
Dew Point: 75 F (24 C)
Relative Humidity: 100%
Pressure (altimeter): 29.83 in. Hg (1010 hPa)
ob: WSSL 152200Z VRB01KT 9999 FEW016 SCT150 24/24 Q1010
cycle: 22

Station Type Date Time Source
WSSL TAF 2018/12/15 18:00 UTC NOAA

TAF WSSL 151700Z 1518/1700 33008KT 9999 FEW015CB SCT020
TEMPO 1607/1611 3000 TSRA FEW012CB BKN015


Example: see airport list